Time;durP1;ratioP1;P1;durP2;ratioP2;P2;SDS_P1;SDS_P2;PMS_P1;PMS_P2;Temp;Humidity;BMP_temperature;BMP_pressure;BME280_temperature;BME280_humidity;BME280_pressure;Samples;Min_cycle;Max_cycle;Signal;HPM_P1;HPM_P2
2022/03/15 00:02:22;;;;;;;31.42;16.63;;;9.80;99.90;;;;;;5032404;28;20029;-85
2022/03/15 00:04:47;;;;;;;30.02;18.20;;;9.90;99.90;;;;;;5034880;28;20466;-85
2022/03/15 00:07:15;;;;;;;27.40;16.30;;;9.90;99.90;;;;;;5026666;28;20044;-84
2022/03/15 00:09:42;;;;;;;25.85;14.93;;;9.70;99.90;;;;;;5025617;28;20034;-81
2022/03/15 00:12:08;;;;;;;29.10;17.58;;;9.70;99.90;;;;;;5030997;28;20029;-83
2022/03/15 00:14:37;;;;;;;23.25;16.15;;;9.80;99.90;;;;;;5042412;28;20074;-83
2022/03/15 00:17:05;;;;;;;23.88;15.90;;;9.80;99.90;;;;;;5027860;28;20021;-84
2022/03/15 00:19:33;;;;;;;26.10;15.32;;;9.80;99.90;;;;;;5035216;28;20501;-84
2022/03/15 00:21:59;;;;;;;21.88;14.75;;;9.70;99.90;;;;;;5028047;28;20021;-83
2022/03/15 00:24:25;;;;;;;19.63;13.82;;;9.70;99.90;;;;;;5032174;28;20033;-84
2022/03/15 00:26:53;;;;;;;30.33;16.08;;;9.70;99.90;;;;;;5036910;28;20052;-83
2022/03/15 00:29:23;;;;;;;26.75;15.50;;;9.70;99.90;;;;;;5027455;28;20030;-84
2022/03/15 00:31:49;;;;;;;23.90;16.35;;;9.70;99.90;;;;;;5035451;28;20033;-84
2022/03/15 00:34:15;;;;;;;24.00;15.30;;;9.70;99.90;;;;;;5029329;28;20056;-82
2022/03/15 00:36:41;;;;;;;25.95;16.45;;;9.60;99.90;;;;;;5032821;28;20469;-84
2022/03/15 00:39:07;;;;;;;27.30;17.67;;;9.70;99.90;;;;;;5040483;28;20484;-85
2022/03/15 00:41:33;;;;;;;33.30;17.85;;;9.60;99.90;;;;;;5050199;28;20017;-84
2022/03/15 00:43:58;;;;;;;30.85;19.98;;;9.60;99.90;;;;;;5042951;28;20052;-84
2022/03/15 00:46:24;;;;;;;35.10;19.08;;;9.60;99.90;;;;;;5032327;28;20371;-84
2022/03/15 00:48:50;;;;;;;31.05;19.23;;;9.60;99.90;;;;;;5041630;28;20389;-84
2022/03/15 00:51:15;;;;;;;31.27;18.73;;;9.60;99.90;;;;;;5024532;28;20037;-83
2022/03/15 00:53:41;;;;;;;34.35;18.92;;;9.50;99.90;;;;;;5031656;28;20097;-84
2022/03/15 00:56:07;;;;;;;33.13;19.88;;;9.50;99.90;;;;;;5038615;28;20036;-83
2022/03/15 00:58:33;;;;;;;29.48;19.75;;;9.50;99.90;;;;;;5036528;28;20044;-84
2022/03/15 01:00:59;;;;;;;34.70;18.75;;;9.50;99.90;;;;;;5036575;28;20021;-83
2022/03/15 01:03:25;;;;;;;30.65;19.45;;;9.50;99.90;;;;;;5043204;28;20378;-82
2022/03/15 01:05:50;;;;;;;32.47;19.05;;;9.40;99.90;;;;;;5049890;28;20377;-83
2022/03/15 01:08:16;;;;;;;32.25;19.13;;;9.40;99.90;;;;;;5030550;28;20037;-83
2022/03/15 01:10:43;;;;;;;33.10;19.13;;;9.30;99.90;;;;;;5036085;28;20102;-83
2022/03/15 01:13:09;;;;;;;30.92;19.58;;;9.20;99.90;;;;;;5035279;28;20025;-83
2022/03/15 01:15:40;;;;;;;32.22;20.98;;;9.00;99.90;;;;;;5031728;28;20117;-82
2022/03/15 01:18:06;;;;;;;30.10;18.80;;;9.20;99.90;;;;;;5032955;28;20021;-83
2022/03/15 01:20:32;;;;;;;28.95;18.67;;;9.10;99.90;;;;;;5040952;28;20028;-83
2022/03/15 01:22:57;;;;;;;27.80;18.60;;;9.10;99.90;;;;;;5043596;28;20025;-84
2022/03/15 01:25:23;;;;;;;30.40;17.90;;;9.10;99.90;;;;;;5043130;28;20413;-83
2022/03/15 01:27:49;;;;;;;26.33;17.25;;;9.10;99.90;;;;;;5024928;28;20026;-83
2022/03/15 01:30:14;;;;;;;32.70;17.27;;;9.10;99.90;;;;;;5039075;28;20483;-84
2022/03/15 01:32:40;;;;;;;28.15;18.15;;;9.10;99.90;;;;;;5029167;28;20099;-84
2022/03/15 01:35:06;;;;;;;31.67;20.70;;;9.10;99.90;;;;;;5036870;28;20045;-85
2022/03/15 01:37:32;;;;;;;29.58;20.35;;;9.10;99.90;;;;;;5052258;28;20021;-84
2022/03/15 01:39:58;;;;;;;34.30;20.20;;;9.10;99.90;;;;;;5026918;28;20104;-85
2022/03/15 01:42:23;;;;;;;26.25;17.02;;;9.10;99.90;;;;;;5028151;28;20033;-85
2022/03/15 01:44:49;;;;;;;27.92;20.42;;;9.00;99.90;;;;;;5033962;28;20115;-85
2022/03/15 01:47:17;;;;;;;34.17;20.42;;;8.90;99.90;;;;;;5028263;28;20082;-84
2022/03/15 01:49:43;;;;;;;32.85;20.98;;;8.90;99.90;;;;;;5038252;28;20033;-84
2022/03/15 01:52:12;;;;;;;32.47;20.80;;;9.00;99.90;;;;;;5041369;28;20025;-85
2022/03/15 01:54:40;;;;;;;32.08;19.90;;;8.90;99.90;;;;;;5025932;28;20362;-85
2022/03/15 01:57:07;;;;;;;30.50;19.90;;;8.70;99.90;;;;;;5035013;28;20028;-85
2022/03/15 01:59:33;;;;;;;30.10;20.95;;;8.80;99.90;;;;;;5042521;28;20033;-85
2022/03/15 02:01:59;;;;;;;37.33;22.60;;;8.90;99.90;;;;;;5029794;28;20108;-86
2022/03/15 02:04:25;;;;;;;33.25;22.67;;;8.90;99.90;;;;;;5036521;28;20473;-85
2022/03/15 02:07:04;;;;;;;30.10;21.40;;;9.00;99.90;;;;;;5040343;28;20525;-85
2022/03/15 02:09:30;;;;;;;36.60;23.83;;;9.00;99.90;;;;;;5033332;28;20402;-84
2022/03/15 02:11:55;;;;;;;37.30;21.95;;;9.00;99.90;;;;;;5039494;28;20029;-84
2022/03/15 02:14:21;;;;;;;37.90;22.35;;;9.00;99.90;;;;;;5037044;28;20465;-84
2022/03/15 02:16:47;;;;;;;29.13;19.67;;;8.90;99.90;;;;;;5031704;28;20493;-84
2022/03/15 02:19:13;;;;;;;33.00;21.92;;;8.90;99.90;;;;;;5027835;28;20417;-84
2022/03/15 02:21:39;;;;;;;29.33;20.02;;;8.90;99.90;;;;;;5037202;28;20110;-85
2022/03/15 02:24:05;;;;;;;35.05;20.08;;;9.00;99.90;;;;;;5030049;28;20482;-84
2022/03/15 02:26:31;;;;;;;33.28;19.70;;;9.00;99.90;;;;;;5036252;28;20039;-85
2022/03/15 02:28:56;;;;;;;29.65;20.95;;;8.90;99.90;;;;;;5031564;28;20029;-83
2022/03/15 02:31:22;;;;;;;33.42;21.38;;;9.00;99.90;;;;;;5033967;28;20140;-84
2022/03/15 02:33:48;;;;;;;32.50;21.17;;;9.00;99.90;;;;;;5031202;28;20057;-84
2022/03/15 02:36:17;;;;;;;30.23;20.25;;;9.00;99.90;;;;;;5029681;28;20094;-84
2022/03/15 02:38:44;;;;;;;32.05;20.40;;;9.00;99.90;;;;;;5035473;28;20059;-84
2022/03/15 02:41:10;;;;;;;33.35;20.75;;;8.90;99.90;;;;;;5027908;28;20108;-85
2022/03/15 02:43:37;;;;;;;31.38;21.45;;;9.00;99.90;;;;;;5030360;28;20037;-85
2022/03/15 02:46:02;;;;;;;36.10;22.65;;;8.90;99.90;;;;;;5042620;28;20603;-84
2022/03/15 02:48:28;;;;;;;32.55;21.90;;;8.90;99.90;;;;;;5021180;28;20037;-85
2022/03/15 02:50:58;;;;;;;32.15;22.38;;;8.90;99.90;;;;;;5036050;28;20048;-85
2022/03/15 02:53:24;;;;;;;33.17;20.50;;;8.90;99.90;;;;;;5021644;28;20066;-85
2022/03/15 02:55:51;;;;;;;28.88;19.83;;;8.90;99.90;;;;;;5038210;28;20518;-85
2022/03/15 02:58:19;;;;;;;31.02;19.70;;;8.90;99.90;;;;;;5027451;28;20028;-83
2022/03/15 03:00:45;;;;;;;30.33;19.20;;;8.90;99.90;;;;;;5029253;28;20033;-83
2022/03/15 03:03:11;;;;;;;32.20;20.25;;;8.90;99.90;;;;;;5037507;28;20366;-84
2022/03/15 03:05:39;;;;;;;25.17;19.80;;;8.80;99.90;;;;;;5033833;28;20037;-85
2022/03/15 03:08:05;;;;;;;32.47;20.92;;;8.80;99.90;;;;;;5028967;28;20159;-85
2022/03/15 03:10:32;;;;;;;33.58;19.73;;;8.80;99.90;;;;;;5035662;28;20089;-85
2022/03/15 03:12:58;;;;;;;29.63;20.80;;;8.90;99.90;;;;;;5040646;28;20473;-84
2022/03/15 03:15:24;;;;;;;32.10;20.25;;;8.90;99.90;;;;;;5031421;28;20041;-85
2022/03/15 03:17:50;;;;;;;31.42;21.08;;;8.90;99.90;;;;;;5033759;28;20022;-85
2022/03/15 03:20:19;;;;;;;30.70;20.58;;;8.90;99.90;;;;;;5032992;28;20040;-85
2022/03/15 03:22:45;;;;;;;31.02;20.27;;;8.90;99.90;;;;;;5033505;28;20026;-84
2022/03/15 03:25:11;;;;;;;33.60;19.98;;;8.90;99.90;;;;;;5044987;28;20071;-84
2022/03/15 03:27:37;;;;;;;28.33;19.02;;;8.80;99.90;;;;;;5028366;28;20026;-84
2022/03/15 03:30:03;;;;;;;26.98;18.67;;;8.80;99.90;;;;;;5036543;28;20029;-84
2022/03/15 03:32:29;;;;;;;33.40;18.20;;;8.80;99.90;;;;;;5032943;28;20029;-85
2022/03/15 03:34:56;;;;;;;30.63;19.63;;;8.80;99.90;;;;;;5036351;28;20108;-84
2022/03/15 03:37:22;;;;;;;25.73;19.13;;;8.80;99.90;;;;;;5042934;28;20075;-84
2022/03/15 03:39:48;;;;;;;28.85;19.73;;;8.80;99.90;;;;;;5048175;28;20025;-83
2022/03/15 03:42:14;;;;;;;28.40;18.65;;;8.80;99.90;;;;;;5036538;28;20040;-84
2022/03/15 03:44:42;;;;;;;31.63;21.05;;;8.80;99.90;;;;;;5029044;28;20069;-84
2022/03/15 03:47:08;;;;;;;34.70;21.23;;;8.70;99.90;;;;;;5042044;28;20108;-84
2022/03/15 03:49:33;;;;;;;28.33;18.20;;;8.70;99.90;;;;;;5037144;28;20109;-83
2022/03/15 03:52:00;;;;;;;31.75;17.35;;;8.60;99.90;;;;;;5031937;28;20450;-85
2022/03/15 03:54:26;;;;;;;30.55;19.95;;;8.70;99.90;;;;;;5026545;28;20025;-84
2022/03/15 03:56:52;;;;;;;28.75;19.05;;;8.70;99.90;;;;;;5042667;28;20087;-84
2022/03/15 03:59:18;;;;;;;29.50;18.58;;;8.60;99.90;;;;;;5035384;28;20123;-85
2022/03/15 04:01:44;;;;;;;27.83;17.42;;;8.60;99.90;;;;;;5038818;28;20033;-84
2022/03/15 04:04:10;;;;;;;28.33;17.75;;;8.60;99.90;;;;;;5033444;28;20400;-82
2022/03/15 04:06:38;;;;;;;27.25;17.27;;;8.60;99.90;;;;;;5037421;28;20036;-85
2022/03/15 04:09:04;;;;;;;23.30;16.65;;;8.50;99.90;;;;;;5033675;28;20022;-83
2022/03/15 04:11:31;;;;;;;29.70;17.98;;;8.60;99.90;;;;;;5035998;28;20032;-84
2022/03/15 04:13:59;;;;;;;30.42;17.50;;;8.60;99.90;;;;;;5038066;28;20459;-84
2022/03/15 04:16:25;;;;;;;26.88;17.00;;;8.60;99.90;;;;;;5030148;28;20508;-84
2022/03/15 04:18:51;;;;;;;24.88;17.15;;;8.60;99.90;;;;;;5041829;28;20033;-84
2022/03/15 04:21:17;;;;;;;25.60;16.42;;;8.70;99.90;;;;;;5028288;28;20480;-84
2022/03/15 04:23:43;;;;;;;34.10;17.35;;;8.70;99.90;;;;;;5038340;28;20029;-85
2022/03/15 04:26:09;;;;;;;28.85;17.70;;;8.70;99.90;;;;;;5043658;28;20378;-84
2022/03/15 04:28:34;;;;;;;23.40;15.23;;;8.70;99.90;;;;;;5029972;28;20030;-84
2022/03/15 04:31:00;;;;;;;26.50;16.85;;;8.70;99.90;;;;;;5039797;28;20029;-85
2022/03/15 04:33:25;;;;;;;24.00;16.45;;;8.70;99.90;;;;;;5035037;28;20516;-84
2022/03/15 04:35:51;;;;;;;29.30;17.35;;;8.70;99.90;;;;;;5033703;28;20041;-85
2022/03/15 04:38:17;;;;;;;27.45;16.63;;;8.70;99.90;;;;;;5038722;28;20485;-84
2022/03/15 04:40:42;;;;;;;25.48;16.77;;;8.70;99.90;;;;;;5030105;28;20030;-85
2022/03/15 04:43:08;;;;;;;22.55;15.68;;;8.70;99.90;;;;;;5045174;28;20036;-85
2022/03/15 04:45:34;;;;;;;24.52;16.08;;;8.60;99.90;;;;;;5042329;28;20076;-85
2022/03/15 04:47:59;;;;;;;27.42;16.85;;;8.60;99.90;;;;;;5028047;28;20032;-85
2022/03/15 04:50:25;;;;;;;25.95;14.75;;;8.60;99.90;;;;;;5037373;28;20034;-85
2022/03/15 04:52:51;;;;;;;28.50;16.48;;;8.60;99.90;;;;;;5049186;28;20627;-86
2022/03/15 04:55:16;;;;;;;24.90;15.57;;;8.60;99.90;;;;;;5042143;28;20029;-85
2022/03/15 04:57:42;;;;;;;25.55;15.52;;;8.60;99.90;;;;;;5029775;28;20110;-85
2022/03/15 05:00:09;;;;;;;29.00;15.77;;;8.60;99.90;;;;;;5034292;28;20485;-85
2022/03/15 05:02:41;;;;;;;28.48;15.68;;;8.60;99.90;;;;;;5032850;28;20025;-80
2022/03/15 05:05:07;;;;;;;;;;;8.60;99.90;;;;;;5034084;28;20036;-83
2022/03/15 05:07:34;;;;;;;22.92;13.75;;;8.50;99.90;;;;;;5030805;28;20335;-85
2022/03/15 05:12:43;;;;;;;24.30;13.77;;;8.60;99.90;;;;;;5049378;28;20036;-85
2022/03/15 05:15:10;;;;;;;26.90;15.23;;;8.60;99.90;;;;;;5027464;28;20033;-85
2022/03/15 05:17:36;;;;;;;22.17;13.75;;;8.50;99.90;;;;;;5045140;28;20437;-84
2022/03/15 05:20:05;;;;;;;25.33;14.07;;;8.40;99.90;;;;;;5029320;28;20488;-86
2022/03/15 05:22:31;;;;;;;24.17;15.77;;;8.30;99.90;;;;;;5033239;28;20032;-86
2022/03/15 05:24:58;;;;;;;28.38;17.25;;;8.30;99.90;;;;;;5033771;28;20028;-86
2022/03/15 05:27:24;;;;;;;27.60;13.65;;;8.30;99.90;;;;;;5034849;28;20053;-86
2022/03/15 05:29:50;;;;;;;23.95;13.85;;;8.30;99.90;;;;;;5034062;28;20025;-86
2022/03/15 05:32:15;;;;;;;19.77;13.40;;;8.30;99.90;;;;;;5042210;28;20119;-87
2022/03/15 05:34:41;;;;;;;21.63;16.05;;;8.30;99.90;;;;;;5037478;28;20059;-86
2022/03/15 05:37:08;;;;;;;28.58;16.02;;;8.30;99.90;;;;;;5040562;28;20108;-86
2022/03/15 05:39:34;;;;;;;25.27;15.25;;;8.30;99.90;;;;;;5030241;28;20075;-86
2022/03/15 05:42:00;;;;;;;22.83;13.25;;;8.30;99.90;;;;;;5021422;28;20041;-87
2022/03/15 05:44:26;;;;;;;23.08;13.88;;;8.30;99.90;;;;;;5033961;28;20068;-87
2022/03/15 05:46:52;;;;;;;22.40;14.02;;;8.30;99.90;;;;;;5034610;28;20038;-86
2022/03/15 05:49:18;;;;;;;23.55;14.27;;;8.30;99.90;;;;;;5029904;28;20468;-86
2022/03/15 05:51:44;;;;;;;23.95;13.85;;;8.20;99.90;;;;;;5037456;28;20381;-87
2022/03/15 05:54:09;;;;;;;20.88;14.25;;;8.10;99.90;;;;;;5048396;28;20017;-86
2022/03/15 05:56:35;;;;;;;24.45;13.65;;;8.10;99.90;;;;;;5045138;28;20029;-87
2022/03/15 05:59:01;;;;;;;25.95;13.48;;;8.20;99.90;;;;;;5023783;28;20072;-87
2022/03/15 06:01:27;;;;;;;22.23;12.88;;;8.20;99.90;;;;;;5038164;28;20037;-85
2022/03/15 06:03:53;;;;;;;22.75;13.85;;;8.20;99.90;;;;;;5028024;28;20028;-85
2022/03/15 06:06:21;;;;;;;21.40;14.90;;;8.20;99.90;;;;;;5034991;28;20222;-84
2022/03/15 06:08:48;;;;;;;25.70;13.90;;;8.20;99.90;;;;;;5048693;28;20078;-87
2022/03/15 06:11:15;;;;;;;23.13;13.07;;;8.20;99.90;;;;;;5030444;28;20029;-83
2022/03/15 06:13:41;;;;;;;19.80;12.20;;;8.10;99.90;;;;;;5032232;28;20049;-88
2022/03/15 06:16:07;;;;;;;19.10;13.18;;;8.20;99.90;;;;;;5036851;28;20065;-87
2022/03/15 06:18:32;;;;;;;30.52;13.52;;;8.30;99.90;;;;;;5028720;28;20057;-87
2022/03/15 06:20:58;;;;;;;21.83;12.02;;;8.30;99.90;;;;;;5042736;28;20071;-86
2022/03/15 06:23:24;;;;;;;22.17;13.75;;;8.40;99.90;;;;;;5023839;28;20022;-84
2022/03/15 06:25:50;;;;;;;23.50;13.85;;;8.40;99.90;;;;;;5039154;28;20045;-85
2022/03/15 06:28:16;;;;;;;23.85;13.82;;;8.40;99.90;;;;;;5028509;28;20450;-86
2022/03/15 06:30:41;;;;;;;22.80;13.32;;;8.50;99.90;;;;;;5033042;28;20053;-86
2022/03/15 06:33:07;;;;;;;16.30;12.55;;;8.50;99.90;;;;;;5039652;28;20021;-85
2022/03/15 06:35:33;;;;;;;19.98;13.23;;;8.60;99.90;;;;;;5022616;28;20498;-85
2022/03/15 06:38:00;;;;;;;22.70;13.30;;;8.60;99.90;;;;;;5032901;28;20117;-84
2022/03/15 06:40:26;;;;;;;22.77;13.40;;;8.50;99.90;;;;;;5029149;28;20026;-85
2022/03/15 06:42:55;;;;;;;22.20;13.55;;;8.60;99.90;;;;;;5035283;28;20044;-85
2022/03/15 06:45:22;;;;;;;22.92;13.50;;;8.60;99.90;;;;;;5031685;28;20056;-84
2022/03/15 06:47:48;;;;;;;21.67;13.18;;;8.60;99.90;;;;;;5034440;28;20029;-86
2022/03/15 06:50:13;;;;;;;18.83;12.07;;;8.70;99.90;;;;;;5036712;28;20030;-85
2022/03/15 06:52:41;;;;;;;22.75;14.20;;;8.50;99.90;;;;;;5034635;28;20029;-84
2022/03/15 06:55:07;;;;;;;23.38;12.93;;;8.60;99.90;;;;;;5045132;28;20026;-85
2022/03/15 06:57:34;;;;;;;22.88;13.90;;;8.60;99.90;;;;;;5027592;28;20029;-84
2022/03/15 07:00:00;;;;;;;21.15;13.02;;;8.60;99.90;;;;;;5040163;28;20037;-85
2022/03/15 07:02:27;;;;;;;20.85;13.93;;;8.60;99.90;;;;;;5041182;28;20025;-86
2022/03/15 07:04:52;;;;;;;24.70;14.15;;;8.60;99.90;;;;;;5037507;28;20030;-85
2022/03/15 07:07:19;;;;;;;20.67;13.90;;;8.70;99.90;;;;;;5039968;28;20035;-79
2022/03/15 07:09:44;;;;;;;29.05;14.45;;;8.80;99.90;;;;;;5043375;28;20033;-80
2022/03/15 07:12:10;;;;;;;24.77;15.35;;;8.70;99.90;;;;;;5044776;28;20025;-79
2022/03/15 07:14:36;;;;;;;22.50;13.70;;;8.70;99.90;;;;;;5044545;28;20091;-78
2022/03/15 07:17:01;;;;;;;24.00;13.68;;;8.70;99.90;;;;;;5034109;28;20041;-79
2022/03/15 07:19:27;;;;;;;20.77;13.85;;;8.70;99.90;;;;;;5049656;28;20100;-79
2022/03/15 07:21:54;;;;;;;26.60;14.05;;;8.70;99.90;;;;;;5044755;28;20357;-80
2022/03/15 07:24:20;;;;;;;22.85;14.15;;;8.80;99.90;;;;;;5043060;28;20042;-80
2022/03/15 07:26:45;;;;;;;23.63;14.55;;;8.80;99.90;;;;;;5029919;28;20036;-79
2022/03/15 07:29:11;;;;;;;23.35;15.32;;;8.90;99.90;;;;;;5046457;28;20560;-80
2022/03/15 07:31:36;;;;;;;20.00;13.80;;;8.90;99.90;;;;;;5032471;28;20022;-80
2022/03/15 07:34:02;;;;;;;22.90;15.63;;;8.80;99.90;;;;;;5037173;28;20061;-80
2022/03/15 07:36:27;;;;;;;22.63;15.85;;;8.80;99.90;;;;;;5030467;28;20471;-79
2022/03/15 07:38:53;;;;;;;23.90;15.27;;;8.80;99.90;;;;;;5040250;28;20029;-80
2022/03/15 07:41:21;;;;;;;23.45;15.27;;;8.80;99.90;;;;;;5030137;28;20017;-80
2022/03/15 07:43:47;;;;;;;28.00;15.80;;;8.80;99.90;;;;;;5024625;28;20417;-79
2022/03/15 07:46:13;;;;;;;27.05;15.20;;;8.80;99.90;;;;;;5034879;28;20045;-80
2022/03/15 07:48:39;;;;;;;24.88;15.90;;;8.90;99.90;;;;;;5035562;28;20029;-79
2022/03/15 07:51:04;;;;;;;25.88;15.98;;;8.90;99.90;;;;;;5038708;28;20107;-79
2022/03/15 07:53:30;;;;;;;24.60;15.45;;;9.00;99.90;;;;;;5040890;28;20021;-79
2022/03/15 07:55:59;;;;;;;21.33;14.55;;;9.00;99.90;;;;;;5035132;28;20539;-79
2022/03/15 07:58:24;;;;;;;22.70;13.52;;;9.00;99.90;;;;;;5026664;28;20494;-79
2022/03/15 08:00:54;;;;;;;23.10;14.65;;;9.00;99.90;;;;;;5042852;28;20032;-78
2022/03/15 08:03:22;;;;;;;24.17;13.93;;;9.10;99.90;;;;;;5026466;28;20021;-79
2022/03/15 08:05:47;;;;;;;23.83;13.75;;;9.10;99.90;;;;;;5028782;28;20037;-77
2022/03/15 08:08:13;;;;;;;21.45;11.95;;;9.10;99.90;;;;;;5029294;28;20102;-78
2022/03/15 08:10:39;;;;;;;19.63;11.10;;;9.20;99.90;;;;;;5031131;28;20029;-79
2022/03/15 08:13:05;;;;;;;19.85;11.68;;;9.20;99.90;;;;;;5034241;28;20028;-79
2022/03/15 08:15:30;;;;;;;22.23;11.32;;;9.30;99.90;;;;;;5028448;28;20056;-82
2022/03/15 08:17:56;;;;;;;27.15;11.60;;;9.40;99.90;;;;;;5031887;28;20673;-81
2022/03/15 08:20:25;;;;;;;18.63;11.48;;;9.30;99.90;;;;;;5024939;28;20090;-85
2022/03/15 08:22:52;;;;;;;26.42;11.65;;;9.40;99.90;;;;;;5032433;28;20116;-82
2022/03/15 08:25:18;;;;;;;19.65;11.93;;;9.50;99.90;;;;;;5025765;28;20044;-80
2022/03/15 08:27:43;;;;;;;17.23;11.07;;;9.50;99.90;;;;;;5032178;28;20030;-80
2022/03/15 08:30:09;;;;;;;25.33;11.98;;;9.50;99.90;;;;;;5030738;28;20615;-81
2022/03/15 08:32:35;;;;;;;19.73;11.32;;;9.50;99.90;;;;;;5032363;28;20021;-83
2022/03/15 08:35:01;;;;;;;24.10;11.55;;;9.50;99.90;;;;;;5031968;28;20025;-83
2022/03/15 08:37:26;;;;;;;18.90;11.50;;;9.50;99.90;;;;;;5036951;28;20029;-82
2022/03/15 08:39:52;;;;;;;22.50;12.75;;;9.50;99.90;;;;;;5026585;28;20040;-84
2022/03/15 08:42:18;;;;;;;19.33;11.38;;;9.50;99.90;;;;;;5036909;28;20030;-83
2022/03/15 08:44:43;;;;;;;18.92;11.60;;;9.50;99.90;;;;;;5033775;28;20041;-83
2022/03/15 08:47:09;;;;;;;18.40;10.30;;;9.60;99.90;;;;;;5031658;28;20021;-79
2022/03/15 08:49:35;;;;;;;21.17;12.38;;;9.60;99.90;;;;;;5026522;28;20053;-79
2022/03/15 08:52:01;;;;;;;23.58;11.07;;;9.60;99.90;;;;;;5033058;28;20457;-78
2022/03/15 08:54:27;;;;;;;16.38;10.38;;;9.70;99.90;;;;;;5034037;28;20036;-79
2022/03/15 08:56:53;;;;;;;17.55;10.48;;;9.70;99.90;;;;;;5032398;28;20013;-79
2022/03/15 08:59:20;;;;;;;17.70;9.93;;;9.70;99.90;;;;;;5026117;28;20520;-81
2022/03/15 09:01:46;;;;;;;19.17;10.20;;;9.80;99.90;;;;;;5032005;28;20061;-79
2022/03/15 09:04:11;;;;;;;19.58;10.65;;;9.80;99.90;;;;;;5028713;28;20505;-80
2022/03/15 09:06:38;;;;;;;17.98;10.35;;;9.80;99.90;;;;;;5034757;28;20466;-80
2022/03/15 09:09:04;;;;;;;17.55;9.30;;;9.90;99.90;;;;;;5026822;28;20442;-82
2022/03/15 09:11:32;;;;;;;22.65;10.02;;;10.00;99.90;;;;;;5030783;28;20087;-82
2022/03/15 09:13:58;;;;;;;19.63;9.30;;;10.00;99.90;;;;;;5029310;28;20108;-81
2022/03/15 09:16:24;;;;;;;23.80;9.55;;;10.00;99.90;;;;;;5027479;28;20025;-89
2022/03/15 09:18:50;;;;;;;19.85;9.90;;;10.10;99.90;;;;;;5023959;28;20079;-86
2022/03/15 09:21:15;;;;;;;18.90;9.50;;;10.20;99.90;;;;;;5035378;28;20029;-86
2022/03/15 09:23:41;;;;;;;16.45;9.27;;;10.10;99.90;;;;;;5028781;28;20474;-81
2022/03/15 09:26:07;;;;;;;19.55;8.52;;;10.20;99.90;;;;;;5034362;28;20106;-80
2022/03/15 09:28:33;;;;;;;16.23;8.15;;;10.30;99.90;;;;;;5042732;28;20029;-81
2022/03/15 09:31:01;;;;;;;16.58;9.23;;;10.40;99.90;;;;;;5032732;28;20021;-87
2022/03/15 09:33:27;;;;;;;15.73;8.82;;;10.50;99.90;;;;;;5031943;28;20022;-81
2022/03/15 09:35:53;;;;;;;20.73;9.27;;;10.40;99.90;;;;;;5038621;28;20116;-82
2022/03/15 09:38:21;;;;;;;16.88;8.77;;;10.50;99.90;;;;;;5030322;28;20168;-79
2022/03/15 09:40:50;;;;;;;19.02;8.68;;;10.50;99.90;;;;;;5031201;28;20068;-80
2022/03/15 09:43:21;;;;;;;22.50;8.90;;;10.50;99.90;;;;;;5030817;28;20018;-82
2022/03/15 09:45:48;;;;;;;16.77;8.40;;;10.60;99.90;;;;;;5031234;28;20045;-81
2022/03/15 09:48:19;;;;;;;15.55;8.65;;;10.60;99.90;;;;;;5025669;28;20089;-80
2022/03/15 09:50:48;;;;;;;18.73;8.65;;;10.70;99.90;;;;;;5032169;28;20033;-79
2022/03/15 09:53:16;;;;;;;17.02;8.88;;;10.80;99.90;;;;;;5030740;28;20147;-79
2022/03/15 09:55:46;;;;;;;16.55;8.70;;;10.80;99.90;;;;;;5028747;28;20072;-85
2022/03/15 09:58:20;;;;;;;18.92;8.55;;;10.90;99.90;;;;;;5032339;28;20517;-87
2022/03/15 10:00:54;;;;;;;19.20;8.23;;;11.00;99.90;;;;;;5028484;28;20028;-78
2022/03/15 10:03:20;;;;;;;17.38;8.25;;;11.00;99.90;;;;;;5029744;28;20521;-81
2022/03/15 10:05:46;;;;;;;13.57;7.60;;;11.00;99.90;;;;;;5034220;28;20069;-80
2022/03/15 10:08:15;;;;;;;20.27;8.65;;;11.10;99.90;;;;;;5026083;28;20104;-84
2022/03/15 10:10:41;;;;;;;18.75;8.27;;;11.20;99.90;;;;;;5033089;28;20029;-80
2022/03/15 10:13:08;;;;;;;21.98;8.35;;;11.10;99.90;;;;;;5032094;28;20028;-81
2022/03/15 10:15:34;;;;;;;17.80;7.80;;;11.20;99.90;;;;;;5032772;28;20040;-80
2022/03/15 10:18:06;;;;;;;17.92;8.80;;;11.20;99.90;;;;;;5025848;28;20026;-82
2022/03/15 10:20:40;;;;;;;;;;;11.10;99.90;;;;;;5030908;28;20474;-77
2022/03/15 10:23:09;;;;;;;18.77;8.55;;;11.20;99.90;;;;;;5026512;28;19998;-79
2022/03/15 10:25:35;;;;;;;17.05;7.88;;;11.20;99.90;;;;;;5026642;28;20470;-79
2022/03/15 10:28:04;;;;;;;14.85;8.02;;;11.20;99.90;;;;;;5032094;28;20132;-79
2022/03/15 10:30:31;;;;;;;16.75;8.43;;;11.10;99.90;;;;;;5034471;28;20024;-78
2022/03/15 10:32:57;;;;;;;15.98;8.25;;;11.10;99.90;;;;;;5025536;28;20105;-78
2022/03/15 10:35:32;;;;;;;21.45;7.32;;;11.10;99.90;;;;;;5028084;28;20061;-78
2022/03/15 10:37:58;;;;;;;17.63;9.25;;;11.10;99.90;;;;;;5029894;28;20035;-79
2022/03/15 10:40:45;;;;;;;27.98;9.23;;;11.10;99.90;;;;;;5029410;28;20030;-79
2022/03/15 10:43:17;;;;;;;14.98;9.18;;;11.10;99.90;;;;;;5031823;28;20444;-79
2022/03/15 10:45:46;;;;;;;17.80;9.05;;;11.10;99.90;;;;;;5026444;28;20065;-76
2022/03/15 10:48:20;;;;;;;20.02;9.27;;;11.20;99.90;;;;;;5035544;28;20058;-81
2022/03/15 10:50:58;;;;;;;19.70;9.15;;;11.30;99.90;;;;;;5027631;28;20107;-78
2022/03/15 10:53:28;;;;;;;18.23;7.90;;;11.30;99.90;;;;;;5029416;28;20099;-80
2022/03/15 10:56:12;;;;;;;14.10;7.75;;;11.40;99.90;;;;;;5026908;28;20022;-80
2022/03/15 10:58:48;;;;;;;14.80;8.00;;;11.40;99.90;;;;;;5030385;28;20061;-81
2022/03/15 11:01:24;;;;;;;14.70;6.82;;;11.50;99.90;;;;;;5018632;28;20029;-81
2022/03/15 11:04:04;;;;;;;13.13;7.38;;;11.50;99.90;;;;;;5031310;28;20037;-80
2022/03/15 11:06:50;;;;;;;15.07;7.43;;;11.60;99.90;;;;;;5027538;28;20033;-81
2022/03/15 11:09:31;;;;;;;15.32;6.80;;;11.70;99.90;;;;;;5034579;28;20108;-80
2022/03/15 11:12:02;;;;;;;11.77;6.38;;;11.60;99.90;;;;;;5035092;28;20029;-81
2022/03/15 11:14:47;;;;;;;12.98;6.40;;;11.60;99.90;;;;;;5026591;28;20041;-80
2022/03/15 11:17:20;;;;;;;13.95;7.05;;;11.70;99.90;;;;;;5022997;28;20110;-80
2022/03/15 11:19:50;;;;;;;11.05;7.85;;;11.70;99.90;;;;;;5033358;28;20025;-81
2022/03/15 11:22:20;;;;;;;10.70;7.65;;;11.70;99.90;;;;;;5024001;28;20033;-80
2022/03/15 11:25:02;;;;;;;11.60;6.30;;;11.90;99.90;;;;;;5032091;28;20034;-82
2022/03/15 11:27:31;;;;;;;10.65;6.00;;;11.90;99.90;;;;;;5026658;28;20026;-81
2022/03/15 11:30:02;;;;;;;12.95;5.90;;;12.00;99.90;;;;;;5031552;28;20032;-81
2022/03/15 11:32:31;;;;;;;6.18;5.07;;;12.10;99.90;;;;;;5033238;28;20084;-80
2022/03/15 11:34:57;;;;;;;11.65;5.80;;;12.20;99.90;;;;;;5027658;28;20055;-80
2022/03/15 11:37:23;;;;;;;12.90;5.05;;;12.20;99.90;;;;;;5020672;28;20033;-80
2022/03/15 11:39:50;;;;;;;13.48;5.07;;;12.40;99.90;;;;;;5031049;28;20030;-80
2022/03/15 11:42:16;;;;;;;6.55;4.40;;;12.40;99.90;;;;;;5031884;28;20037;-80
2022/03/15 11:45:14;;;;;;;7.25;4.38;;;12.40;99.90;;;;;;5033675;28;20121;-80
2022/03/15 11:47:44;;;;;;;10.48;4.03;;;12.50;99.90;;;;;;5026059;28;20123;-80
2022/03/15 11:50:42;;;;;;;7.47;4.15;;;12.60;99.90;;;;;;5037322;28;20947;-80
2022/03/15 11:53:41;;;;;;;6.28;3.25;;;12.50;99.90;;;;;;5043650;28;20045;-81
2022/03/15 11:56:35;;;;;;;6.97;2.97;;;12.40;99.90;;;;;;5029055;28;20032;-81
2022/03/15 11:59:01;;;;;;;8.00;3.70;;;12.60;99.90;;;;;;5031940;28;20105;-80
2022/03/15 12:01:28;;;;;;;8.95;3.90;;;12.70;99.90;;;;;;5040852;28;20438;-80
2022/03/15 12:03:59;;;;;;;5.65;3.25;;;12.90;99.90;;;;;;5035177;28;20040;-81
2022/03/15 12:06:31;;;;;;;5.25;3.00;;;13.00;99.90;;;;;;5035658;28;20064;-80
2022/03/15 12:08:58;;;;;;;5.93;3.58;;;13.10;99.90;;;;;;5032313;28;20025;-79
2022/03/15 12:11:39;;;;;;;4.05;3.33;;;13.10;99.90;;;;;;5027187;28;20108;-80
2022/03/15 12:14:19;;;;;;;5.40;2.28;;;13.20;99.90;;;;;;5024767;28;20030;-81
2022/03/15 12:16:49;;;;;;;2.00;1.60;;;13.20;99.90;;;;;;5025860;28;20030;-80
2022/03/15 12:19:27;;;;;;;3.50;1.70;;;13.20;99.90;;;;;;5031317;28;20533;-81
2022/03/15 12:21:57;;;;;;;3.30;1.60;;;13.10;99.90;;;;;;5037377;28;20029;-79
2022/03/15 12:24:35;;;;;;;2.13;1.52;;;13.20;99.90;;;;;;5033167;28;20035;-83
2022/03/15 12:27:04;;;;;;;3.90;1.80;;;13.20;99.90;;;;;;5033575;28;20052;-80
2022/03/15 12:29:30;;;;;;;3.95;1.67;;;13.20;99.90;;;;;;5038428;28;20033;-80
2022/03/15 12:32:08;;;;;;;2.25;2.05;;;13.20;99.90;;;;;;5033582;28;20087;-80
2022/03/15 12:34:34;;;;;;;3.10;1.90;;;13.20;99.90;;;;;;5033777;28;20025;-80
2022/03/15 12:37:00;;;;;;;1.67;1.48;;;13.10;99.90;;;;;;5026481;28;20028;-79
2022/03/15 12:39:28;;;;;;;2.38;1.30;;;13.10;99.90;;;;;;5034992;28;20087;-79
2022/03/15 12:42:10;;;;;;;3.42;1.55;;;13.10;99.90;;;;;;5032923;28;20025;-79
2022/03/15 12:44:39;;;;;;;2.03;1.30;;;13.10;99.90;;;;;;5036107;28;20414;-80